TAF KMHK
KMHK 280520Z 2806/2906 34007KT P6SM SKC=
METAR KMHK
WC KMHK
WS KMHK
WV KMHK